Página principal
METAR-TAF:

METAR-TAF

Aeroportos :

Aeroporto de Sevilha

Sevilha, Espanha

latitude: 37-25N, longitude: 005-54W, altura: 34 m

Observação actual do tempo

O boletim foi feito há 49 minutos, às 06:30 UTC
Vento 6 kt de nordeste, variando entre norte e es-nordeste
Temperatura 17°C
Humidade 48%
Pressão 1017 hPa
Visibilidade 10 km ou mais
sem nuvens abaixo de 1500 metros e sem cumulonimbus

METAR: LEZL 250630Z 04006KT 010V070 CAVOK 17/06 Q1017 NOSIG

Hora: 09:19 (07:19 UTC)

Previsão

O boletim foi feito há 5 horas e 19 minutos, às 02:00 UTC
Previsão válida de 25 às 03 UTC a 26 às 03 UTC
Vento 8 kt de nordeste
Visibilidade 10 km ou mais
sem nuvens abaixo de 1500 metros e sem cumulonimbus

TAF: LEZL 250200Z 2503/2603 04008KT CAVOK TX30/2515Z TN17/2505Z

Observações e previsões do tempo de mais de 4000 aeroportos (mensagens METAR e TAF).

As estações disponíveis são os pontos amarelos e vermelhos sobre o mapa.

Mova o rato sobre o mapa para ver o nome da estação.

Depois clique no ponto para visualizar as observações e previsões meteorológicas.

Para alterar o mapa : clique nos botões verdes com uma cruz preta para aumentar o zoom; no botão verde com uma pitada de zoom; ou nas setas verdes para mapas adjacentes.


METAR-TAF: